sensor_id;sensor_type;location;lat;lon;timestamp;P1;durP1;ratioP1;P2;durP2;ratioP2
68923;SDS011;55961;52.156;20.942;2024-03-07T00:00:07;20.75;;;9.60;;
68923;SDS011;55961;52.156;20.942;2024-03-07T00:03:01;21.07;;;10.03;;
68923;SDS011;55961;52.156;20.942;2024-03-07T00:05:27;20.92;;;9.00;;
68923;SDS011;55961;52.156;20.942;2024-03-07T00:07:53;19.77;;;10.07;;
68923;SDS011;55961;52.156;20.942;2024-03-07T00:10:19;19.50;;;10.07;;
68923;SDS011;55961;52.156;20.942;2024-03-07T00:12:46;23.33;;;10.57;;
68923;SDS011;55961;52.156;20.942;2024-03-07T00:15:13;19.77;;;10.25;;
68923;SDS011;55961;52.156;20.942;2024-03-07T00:17:40;21.77;;;10.32;;
68923;SDS011;55961;52.156;20.942;2024-03-07T00:20:06;21.65;;;10.70;;
68923;SDS011;55961;52.156;20.942;2024-03-07T00:22:40;23.27;;;11.45;;
68923;SDS011;55961;52.156;20.942;2024-03-07T00:25:06;25.93;;;11.10;;
68923;SDS011;55961;52.156;20.942;2024-03-07T00:27:35;23.50;;;10.98;;
68923;SDS011;55961;52.156;20.942;2024-03-07T00:30:01;21.05;;;10.32;;
68923;SDS011;55961;52.156;20.942;2024-03-07T00:32:30;24.00;;;10.82;;
68923;SDS011;55961;52.156;20.942;2024-03-07T00:35:00;24.02;;;10.95;;
68923;SDS011;55961;52.156;20.942;2024-03-07T00:37:28;24.03;;;11.77;;
68923;SDS011;55961;52.156;20.942;2024-03-07T00:39:55;23.90;;;11.40;;
68923;SDS011;55961;52.156;20.942;2024-03-07T00:42:22;22.75;;;11.27;;
68923;SDS011;55961;52.156;20.942;2024-03-07T00:44:48;22.48;;;10.45;;
68923;SDS011;55961;52.156;20.942;2024-03-07T00:47:17;24.45;;;12.10;;
68923;SDS011;55961;52.156;20.942;2024-03-07T00:49:43;25.67;;;12.30;;
68923;SDS011;55961;52.156;20.942;2024-03-07T00:52:12;27.63;;;12.35;;
68923;SDS011;55961;52.156;20.942;2024-03-07T00:54:38;22.30;;;10.20;;
68923;SDS011;55961;52.156;20.942;2024-03-07T00:57:04;25.35;;;11.18;;
68923;SDS011;55961;52.156;20.942;2024-03-07T00:59:30;25.17;;;12.03;;
68923;SDS011;55961;52.156;20.942;2024-03-07T01:01:56;22.60;;;10.65;;
68923;SDS011;55961;52.156;20.942;2024-03-07T01:04:22;23.33;;;11.40;;
68923;SDS011;55961;52.156;20.942;2024-03-07T01:06:48;22.83;;;11.47;;
68923;SDS011;55961;52.156;20.942;2024-03-07T01:09:15;22.67;;;11.30;;
68923;SDS011;55961;52.156;20.942;2024-03-07T01:11:44;21.27;;;10.60;;
68923;SDS011;55961;52.156;20.942;2024-03-07T01:14:13;20.05;;;9.23;;
68923;SDS011;55961;52.156;20.942;2024-03-07T01:16:39;22.83;;;11.65;;
68923;SDS011;55961;52.156;20.942;2024-03-07T01:19:05;25.60;;;10.97;;
68923;SDS011;55961;52.156;20.942;2024-03-07T01:21:34;24.88;;;11.52;;
68923;SDS011;55961;52.156;20.942;2024-03-07T01:24:01;24.13;;;10.50;;
68923;SDS011;55961;52.156;20.942;2024-03-07T01:26:28;27.42;;;11.85;;
68923;SDS011;55961;52.156;20.942;2024-03-07T01:28:54;26.00;;;10.93;;
68923;SDS011;55961;52.156;20.942;2024-03-07T01:31:23;23.23;;;11.30;;
68923;SDS011;55961;52.156;20.942;2024-03-07T01:33:49;24.23;;;10.43;;
68923;SDS011;55961;52.156;20.942;2024-03-07T01:36:16;21.75;;;10.88;;
68923;SDS011;55961;52.156;20.942;2024-03-07T01:38:41;20.87;;;10.10;;
68923;SDS011;55961;52.156;20.942;2024-03-07T01:41:07;22.33;;;10.68;;
68923;SDS011;55961;52.156;20.942;2024-03-07T01:43:34;24.70;;;11.25;;
68923;SDS011;55961;52.156;20.942;2024-03-07T01:46:00;26.20;;;10.85;;
68923;SDS011;55961;52.156;20.942;2024-03-07T01:48:26;23.88;;;11.65;;
68923;SDS011;55961;52.156;20.942;2024-03-07T01:50:57;22.33;;;10.70;;
68923;SDS011;55961;52.156;20.942;2024-03-07T01:53:25;18.58;;;8.93;;
68923;SDS011;55961;52.156;20.942;2024-03-07T01:55:53;23.17;;;11.45;;
68923;SDS011;55961;52.156;20.942;2024-03-07T01:58:19;22.85;;;11.13;;
68923;SDS011;55961;52.156;20.942;2024-03-07T02:00:46;23.85;;;11.52;;
68923;SDS011;55961;52.156;20.942;2024-03-07T02:03:16;23.90;;;11.93;;
68923;SDS011;55961;52.156;20.942;2024-03-07T02:05:42;25.77;;;11.68;;
68923;SDS011;55961;52.156;20.942;2024-03-07T02:08:09;27.38;;;11.85;;
68923;SDS011;55961;52.156;20.942;2024-03-07T02:10:35;29.42;;;11.90;;
68923;SDS011;55961;52.156;20.942;2024-03-07T02:13:00;28.20;;;11.93;;
68923;SDS011;55961;52.156;20.942;2024-03-07T02:15:27;24.52;;;10.55;;
68923;SDS011;55961;52.156;20.942;2024-03-07T02:17:52;27.40;;;12.57;;
68923;SDS011;55961;52.156;20.942;2024-03-07T02:20:19;24.88;;;11.57;;
68923;SDS011;55961;52.156;20.942;2024-03-07T02:22:44;24.43;;;11.87;;
68923;SDS011;55961;52.156;20.942;2024-03-07T02:25:11;23.48;;;11.35;;
68923;SDS011;55961;52.156;20.942;2024-03-07T02:27:37;26.50;;;12.05;;
68923;SDS011;55961;52.156;20.942;2024-03-07T02:30:04;27.63;;;11.82;;
68923;SDS011;55961;52.156;20.942;2024-03-07T02:32:33;25.33;;;11.25;;
68923;SDS011;55961;52.156;20.942;2024-03-07T02:35:00;23.60;;;10.60;;
68923;SDS011;55961;52.156;20.942;2024-03-07T02:37:26;26.48;;;11.57;;
68923;SDS011;55961;52.156;20.942;2024-03-07T02:39:52;23.27;;;11.43;;
68923;SDS011;55961;52.156;20.942;2024-03-07T02:42:18;21.83;;;10.77;;
68923;SDS011;55961;52.156;20.942;2024-03-07T02:44:46;26.35;;;11.02;;
68923;SDS011;55961;52.156;20.942;2024-03-07T02:47:12;22.60;;;11.57;;
68923;SDS011;55961;52.156;20.942;2024-03-07T02:49:38;23.25;;;10.68;;
68923;SDS011;55961;52.156;20.942;2024-03-07T02:52:04;23.67;;;11.07;;
68923;SDS011;55961;52.156;20.942;2024-03-07T02:54:33;24.45;;;10.63;;
68923;SDS011;55961;52.156;20.942;2024-03-07T02:56:59;21.65;;;9.77;;
68923;SDS011;55961;52.156;20.942;2024-03-07T02:59:25;22.90;;;10.40;;
68923;SDS011;55961;52.156;20.942;2024-03-07T03:01:51;23.83;;;11.10;;
68923;SDS011;55961;52.156;20.942;2024-03-07T03:04:17;25.77;;;10.10;;
68923;SDS011;55961;52.156;20.942;2024-03-07T03:06:43;22.42;;;10.60;;
68923;SDS011;55961;52.156;20.942;2024-03-07T03:09:10;24.95;;;11.30;;
68923;SDS011;55961;52.156;20.942;2024-03-07T03:11:42;25.10;;;11.63;;
68923;SDS011;55961;52.156;20.942;2024-03-07T03:14:10;24.88;;;10.60;;
68923;SDS011;55961;52.156;20.942;2024-03-07T03:16:40;24.90;;;11.25;;
68923;SDS011;55961;52.156;20.942;2024-03-07T03:19:07;24.58;;;10.90;;
68923;SDS011;55961;52.156;20.942;2024-03-07T03:21:34;22.88;;;10.48;;
68923;SDS011;55961;52.156;20.942;2024-03-07T03:24:00;25.17;;;10.83;;
68923;SDS011;55961;52.156;20.942;2024-03-07T03:26:27;23.00;;;10.50;;
68923;SDS011;55961;52.156;20.942;2024-03-07T03:28:54;23.48;;;11.02;;
68923;SDS011;55961;52.156;20.942;2024-03-07T03:31:19;24.15;;;10.32;;
68923;SDS011;55961;52.156;20.942;2024-03-07T03:33:45;23.07;;;10.43;;
68923;SDS011;55961;52.156;20.942;2024-03-07T03:36:11;22.40;;;10.38;;
68923;SDS011;55961;52.156;20.942;2024-03-07T03:38:39;23.70;;;10.43;;
68923;SDS011;55961;52.156;20.942;2024-03-07T03:41:06;24.30;;;11.05;;
68923;SDS011;55961;52.156;20.942;2024-03-07T03:43:35;23.17;;;10.57;;
68923;SDS011;55961;52.156;20.942;2024-03-07T03:46:01;21.90;;;10.07;;
68923;SDS011;55961;52.156;20.942;2024-03-07T03:48:28;26.30;;;10.52;;
68923;SDS011;55961;52.156;20.942;2024-03-07T03:50:53;23.83;;;10.20;;
68923;SDS011;55961;52.156;20.942;2024-03-07T03:53:20;26.08;;;10.40;;
68923;SDS011;55961;52.156;20.942;2024-03-07T03:55:45;27.80;;;10.30;;
68923;SDS011;55961;52.156;20.942;2024-03-07T03:58:11;24.00;;;10.75;;
68923;SDS011;55961;52.156;20.942;2024-03-07T04:00:37;22.67;;;10.50;;
68923;SDS011;55961;52.156;20.942;2024-03-07T04:03:04;23.98;;;9.95;;
68923;SDS011;55961;52.156;20.942;2024-03-07T04:05:32;22.23;;;10.65;;
68923;SDS011;55961;52.156;20.942;2024-03-07T04:07:58;27.90;;;11.70;;
68923;SDS011;55961;52.156;20.942;2024-03-07T04:10:23;26.90;;;11.10;;
68923;SDS011;55961;52.156;20.942;2024-03-07T04:12:50;25.67;;;11.00;;
68923;SDS011;55961;52.156;20.942;2024-03-07T04:15:16;24.05;;;11.32;;
68923;SDS011;55961;52.156;20.942;2024-03-07T04:17:43;23.08;;;10.55;;
68923;SDS011;55961;52.156;20.942;2024-03-07T04:20:12;21.73;;;10.43;;
68923;SDS011;55961;52.156;20.942;2024-03-07T04:22:39;25.52;;;11.25;;
68923;SDS011;55961;52.156;20.942;2024-03-07T04:25:05;23.20;;;10.90;;
68923;SDS011;55961;52.156;20.942;2024-03-07T04:27:33;24.35;;;10.48;;
68923;SDS011;55961;52.156;20.942;2024-03-07T04:30:05;25.90;;;11.20;;
68923;SDS011;55961;52.156;20.942;2024-03-07T04:32:33;25.15;;;11.25;;
68923;SDS011;55961;52.156;20.942;2024-03-07T04:35:01;23.95;;;11.23;;
68923;SDS011;55961;52.156;20.942;2024-03-07T04:37:33;25.15;;;10.82;;
68923;SDS011;55961;52.156;20.942;2024-03-07T04:40:05;25.50;;;11.15;;
68923;SDS011;55961;52.156;20.942;2024-03-07T04:42:43;23.30;;;11.03;;
68923;SDS011;55961;52.156;20.942;2024-03-07T04:45:10;27.58;;;11.98;;
68923;SDS011;55961;52.156;20.942;2024-03-07T04:47:41;25.58;;;11.40;;
68923;SDS011;55961;52.156;20.942;2024-03-07T04:50:09;25.55;;;11.43;;
68923;SDS011;55961;52.156;20.942;2024-03-07T04:52:39;29.15;;;11.88;;
68923;SDS011;55961;52.156;20.942;2024-03-07T04:55:05;28.23;;;12.00;;
68923;SDS011;55961;52.156;20.942;2024-03-07T04:57:36;25.88;;;10.63;;
68923;SDS011;55961;52.156;20.942;2024-03-07T05:00:06;24.63;;;10.95;;
68923;SDS011;55961;52.156;20.942;2024-03-07T05:02:39;24.67;;;11.32;;
68923;SDS011;55961;52.156;20.942;2024-03-07T05:05:08;28.85;;;11.25;;
68923;SDS011;55961;52.156;20.942;2024-03-07T05:07:34;27.30;;;10.47;;
68923;SDS011;55961;52.156;20.942;2024-03-07T05:10:03;25.95;;;11.75;;
68923;SDS011;55961;52.156;20.942;2024-03-07T05:12:31;24.92;;;11.52;;
68923;SDS011;55961;52.156;20.942;2024-03-07T05:14:57;26.70;;;10.90;;
68923;SDS011;55961;52.156;20.942;2024-03-07T05:17:23;25.52;;;11.10;;
68923;SDS011;55961;52.156;20.942;2024-03-07T05:19:48;29.67;;;11.67;;
68923;SDS011;55961;52.156;20.942;2024-03-07T05:22:15;24.42;;;9.98;;
68923;SDS011;55961;52.156;20.942;2024-03-07T05:24:41;25.67;;;10.45;;
68923;SDS011;55961;52.156;20.942;2024-03-07T05:27:11;29.93;;;11.00;;
68923;SDS011;55961;52.156;20.942;2024-03-07T05:29:37;26.27;;;11.57;;
68923;SDS011;55961;52.156;20.942;2024-03-07T05:32:23;24.98;;;10.48;;
68923;SDS011;55961;52.156;20.942;2024-03-07T05:34:50;24.40;;;10.40;;
68923;SDS011;55961;52.156;20.942;2024-03-07T05:37:19;29.03;;;11.90;;
68923;SDS011;55961;52.156;20.942;2024-03-07T05:39:49;29.92;;;11.13;;
68923;SDS011;55961;52.156;20.942;2024-03-07T05:42:15;26.30;;;11.20;;
68923;SDS011;55961;52.156;20.942;2024-03-07T05:44:41;26.58;;;10.98;;
68923;SDS011;55961;52.156;20.942;2024-03-07T05:47:08;30.13;;;12.15;;
68923;SDS011;55961;52.156;20.942;2024-03-07T05:49:34;27.60;;;11.63;;
68923;SDS011;55961;52.156;20.942;2024-03-07T05:52:06;25.40;;;10.80;;
68923;SDS011;55961;52.156;20.942;2024-03-07T05:54:32;27.33;;;10.43;;
68923;SDS011;55961;52.156;20.942;2024-03-07T05:56:58;22.80;;;10.07;;
68923;SDS011;55961;52.156;20.942;2024-03-07T05:59:25;27.30;;;10.38;;
68923;SDS011;55961;52.156;20.942;2024-03-07T06:01:54;27.07;;;11.00;;
68923;SDS011;55961;52.156;20.942;2024-03-07T06:04:21;23.98;;;9.93;;
68923;SDS011;55961;52.156;20.942;2024-03-07T06:06:48;27.38;;;10.52;;
68923;SDS011;55961;52.156;20.942;2024-03-07T06:09:16;29.67;;;11.15;;
68923;SDS011;55961;52.156;20.942;2024-03-07T06:11:47;24.30;;;9.75;;
68923;SDS011;55961;52.156;20.942;2024-03-07T06:14:17;25.53;;;10.50;;
68923;SDS011;55961;52.156;20.942;2024-03-07T06:16:43;21.02;;;9.15;;
68923;SDS011;55961;52.156;20.942;2024-03-07T06:19:09;23.17;;;9.70;;
68923;SDS011;55961;52.156;20.942;2024-03-07T06:21:36;21.33;;;10.65;;
68923;SDS011;55961;52.156;20.942;2024-03-07T06:24:06;24.35;;;10.27;;
68923;SDS011;55961;52.156;20.942;2024-03-07T06:26:34;23.13;;;9.27;;
68923;SDS011;55961;52.156;20.942;2024-03-07T06:29:14;23.15;;;9.63;;
68923;SDS011;55961;52.156;20.942;2024-03-07T06:31:49;20.23;;;8.77;;
68923;SDS011;55961;52.156;20.942;2024-03-07T06:34:15;21.10;;;9.20;;
68923;SDS011;55961;52.156;20.942;2024-03-07T06:36:41;21.23;;;8.98;;
68923;SDS011;55961;52.156;20.942;2024-03-07T06:39:07;22.53;;;9.10;;
68923;SDS011;55961;52.156;20.942;2024-03-07T06:41:36;20.63;;;9.20;;
68923;SDS011;55961;52.156;20.942;2024-03-07T06:44:02;25.17;;;9.90;;
68923;SDS011;55961;52.156;20.942;2024-03-07T06:46:28;23.33;;;9.85;;
68923;SDS011;55961;52.156;20.942;2024-03-07T06:48:55;25.73;;;10.10;;
68923;SDS011;55961;52.156;20.942;2024-03-07T06:51:24;21.10;;;9.02;;
68923;SDS011;55961;52.156;20.942;2024-03-07T06:53:50;22.08;;;9.27;;
68923;SDS011;55961;52.156;20.942;2024-03-07T06:56:16;21.08;;;8.85;;
68923;SDS011;55961;52.156;20.942;2024-03-07T06:58:43;20.67;;;7.77;;
68923;SDS011;55961;52.156;20.942;2024-03-07T07:01:11;25.02;;;8.93;;
68923;SDS011;55961;52.156;20.942;2024-03-07T07:03:40;24.42;;;8.90;;
68923;SDS011;55961;52.156;20.942;2024-03-07T07:06:09;21.45;;;8.55;;
68923;SDS011;55961;52.156;20.942;2024-03-07T07:08:35;20.40;;;8.70;;
68923;SDS011;55961;52.156;20.942;2024-03-07T07:11:02;19.73;;;7.50;;
68923;SDS011;55961;52.156;20.942;2024-03-07T07:13:29;23.38;;;8.93;;
68923;SDS011;55961;52.156;20.942;2024-03-07T07:15:56;20.20;;;8.27;;
68923;SDS011;55961;52.156;20.942;2024-03-07T07:18:22;22.02;;;8.50;;
68923;SDS011;55961;52.156;20.942;2024-03-07T07:20:49;19.27;;;7.93;;
68923;SDS011;55961;52.156;20.942;2024-03-07T07:23:17;16.93;;;7.67;;
68923;SDS011;55961;52.156;20.942;2024-03-07T07:25:44;17.25;;;7.30;;
68923;SDS011;55961;52.156;20.942;2024-03-07T07:28:11;19.58;;;8.32;;
68923;SDS011;55961;52.156;20.942;2024-03-07T07:30:37;18.38;;;7.90;;
68923;SDS011;55961;52.156;20.942;2024-03-07T07:33:03;19.93;;;7.50;;
68923;SDS011;55961;52.156;20.942;2024-03-07T07:35:30;16.70;;;7.18;;
68923;SDS011;55961;52.156;20.942;2024-03-07T07:37:56;18.67;;;7.47;;
68923;SDS011;55961;52.156;20.942;2024-03-07T07:40:23;17.80;;;8.00;;
68923;SDS011;55961;52.156;20.942;2024-03-07T07:43:00;16.95;;;7.20;;
68923;SDS011;55961;52.156;20.942;2024-03-07T07:45:26;17.63;;;7.83;;
68923;SDS011;55961;52.156;20.942;2024-03-07T07:47:53;17.17;;;7.07;;
68923;SDS011;55961;52.156;20.942;2024-03-07T07:50:20;21.00;;;7.70;;
68923;SDS011;55961;52.156;20.942;2024-03-07T07:52:52;21.50;;;7.60;;
68923;SDS011;55961;52.156;20.942;2024-03-07T07:55:20;19.83;;;8.10;;
68923;SDS011;55961;52.156;20.942;2024-03-07T07:57:48;17.97;;;7.63;;
68923;SDS011;55961;52.156;20.942;2024-03-07T08:00:25;14.00;;;6.50;;
68923;SDS011;55961;52.156;20.942;2024-03-07T08:02:54;17.00;;;6.32;;
68923;SDS011;55961;52.156;20.942;2024-03-07T08:05:25;15.23;;;7.28;;
68923;SDS011;55961;52.156;20.942;2024-03-07T08:07:53;15.88;;;6.55;;
68923;SDS011;55961;52.156;20.942;2024-03-07T08:10:24;18.20;;;7.50;;
68923;SDS011;55961;52.156;20.942;2024-03-07T08:12:51;14.02;;;6.70;;
68923;SDS011;55961;52.156;20.942;2024-03-07T08:15:17;17.52;;;6.95;;
68923;SDS011;55961;52.156;20.942;2024-03-07T08:17:45;12.43;;;5.57;;
68923;SDS011;55961;52.156;20.942;2024-03-07T08:20:12;16.38;;;7.05;;
68923;SDS011;55961;52.156;20.942;2024-03-07T08:22:43;17.03;;;7.27;;
68923;SDS011;55961;52.156;20.942;2024-03-07T08:25:10;11.57;;;4.97;;
68923;SDS011;55961;52.156;20.942;2024-03-07T08:27:40;14.75;;;6.00;;
68923;SDS011;55961;52.156;20.942;2024-03-07T08:30:08;10.60;;;4.10;;
68923;SDS011;55961;52.156;20.942;2024-03-07T08:32:46;13.63;;;6.18;;
68923;SDS011;55961;52.156;20.942;2024-03-07T08:35:13;13.37;;;5.90;;
68923;SDS011;55961;52.156;20.942;2024-03-07T08:37:44;12.60;;;6.07;;
68923;SDS011;55961;52.156;20.942;2024-03-07T08:40:12;14.70;;;6.63;;
68923;SDS011;55961;52.156;20.942;2024-03-07T08:42:47;14.32;;;6.00;;
68923;SDS011;55961;52.156;20.942;2024-03-07T08:45:19;15.80;;;5.82;;
68923;SDS011;55961;52.156;20.942;2024-03-07T08:47:46;13.93;;;6.23;;
68923;SDS011;55961;52.156;20.942;2024-03-07T08:50:13;14.43;;;6.35;;
68923;SDS011;55961;52.156;20.942;2024-03-07T08:52:40;11.38;;;5.82;;
68923;SDS011;55961;52.156;20.942;2024-03-07T08:55:07;13.20;;;6.78;;
68923;SDS011;55961;52.156;20.942;2024-03-07T08:57:38;14.30;;;6.90;;
68923;SDS011;55961;52.156;20.942;2024-03-07T09:00:05;15.23;;;5.73;;
68923;SDS011;55961;52.156;20.942;2024-03-07T09:02:39;12.82;;;5.80;;
68923;SDS011;55961;52.156;20.942;2024-03-07T09:05:07;11.40;;;5.97;;
68923;SDS011;55961;52.156;20.942;2024-03-07T09:07:35;13.15;;;6.35;;
68923;SDS011;55961;52.156;20.942;2024-03-07T09:10:01;14.30;;;5.32;;
68923;SDS011;55961;52.156;20.942;2024-03-07T09:12:29;11.80;;;5.93;;
68923;SDS011;55961;52.156;20.942;2024-03-07T09:14:55;14.05;;;6.10;;
68923;SDS011;55961;52.156;20.942;2024-03-07T09:17:24;11.73;;;5.25;;
68923;SDS011;55961;52.156;20.942;2024-03-07T09:19:50;13.70;;;5.47;;
68923;SDS011;55961;52.156;20.942;2024-03-07T09:22:15;10.53;;;4.53;;
68923;SDS011;55961;52.156;20.942;2024-03-07T09:24:41;11.10;;;4.82;;
68923;SDS011;55961;52.156;20.942;2024-03-07T09:27:07;11.88;;;5.40;;
68923;SDS011;55961;52.156;20.942;2024-03-07T09:29:33;12.75;;;4.95;;
68923;SDS011;55961;52.156;20.942;2024-03-07T09:31:59;11.83;;;4.50;;
68923;SDS011;55961;52.156;20.942;2024-03-07T09:34:25;9.77;;;4.72;;
68923;SDS011;55961;52.156;20.942;2024-03-07T09:36:51;9.52;;;4.43;;
68923;SDS011;55961;52.156;20.942;2024-03-07T09:39:18;9.75;;;3.72;;
68923;SDS011;55961;52.156;20.942;2024-03-07T09:41:44;13.53;;;4.80;;
68923;SDS011;55961;52.156;20.942;2024-03-07T09:44:17;8.77;;;4.40;;
68923;SDS011;55961;52.156;20.942;2024-03-07T09:46:49;9.00;;;4.20;;
68923;SDS011;55961;52.156;20.942;2024-03-07T09:49:17;11.68;;;4.30;;
68923;SDS011;55961;52.156;20.942;2024-03-07T09:51:44;11.07;;;4.75;;
68923;SDS011;55961;52.156;20.942;2024-03-07T09:54:11;8.63;;;4.23;;
68923;SDS011;55961;52.156;20.942;2024-03-07T09:56:40;12.02;;;4.45;;
68923;SDS011;55961;52.156;20.942;2024-03-07T09:59:17;14.20;;;4.93;;
68923;SDS011;55961;52.156;20.942;2024-03-07T10:01:48;8.00;;;3.45;;
68923;SDS011;55961;52.156;20.942;2024-03-07T10:04:16;8.73;;;3.47;;
68923;SDS011;55961;52.156;20.942;2024-03-07T10:06:54;8.90;;;3.90;;
68923;SDS011;55961;52.156;20.942;2024-03-07T10:09:21;9.95;;;4.32;;
68923;SDS011;55961;52.156;20.942;2024-03-07T10:12:00;10.30;;;4.03;;
68923;SDS011;55961;52.156;20.942;2024-03-07T10:14:31;11.05;;;4.20;;
68923;SDS011;55961;52.156;20.942;2024-03-07T10:16:58;8.02;;;4.10;;
68923;SDS011;55961;52.156;20.942;2024-03-07T10:19:24;14.13;;;3.93;;
68923;SDS011;55961;52.156;20.942;2024-03-07T10:21:50;8.98;;;3.53;;
68923;SDS011;55961;52.156;20.942;2024-03-07T10:24:17;8.63;;;4.03;;
68923;SDS011;55961;52.156;20.942;2024-03-07T10:26:49;9.88;;;4.57;;
68923;SDS011;55961;52.156;20.942;2024-03-07T10:29:16;10.63;;;3.92;;
68923;SDS011;55961;52.156;20.942;2024-03-07T10:31:43;12.50;;;3.90;;
68923;SDS011;55961;52.156;20.942;2024-03-07T10:34:11;9.07;;;3.88;;
68923;SDS011;55961;52.156;20.942;2024-03-07T10:36:37;8.65;;;3.20;;
68923;SDS011;55961;52.156;20.942;2024-03-07T10:39:05;9.65;;;4.25;;
68923;SDS011;55961;52.156;20.942;2024-03-07T10:41:44;10.00;;;4.60;;
68923;SDS011;55961;52.156;20.942;2024-03-07T10:44:21;9.98;;;4.95;;
68923;SDS011;55961;52.156;20.942;2024-03-07T10:46:57;8.48;;;3.97;;
68923;SDS011;55961;52.156;20.942;2024-03-07T10:52:34;9.43;;;4.47;;
68923;SDS011;55961;52.156;20.942;2024-03-07T11:01:04;10.68;;;3.85;;
68923;SDS011;55961;52.156;20.942;2024-03-07T11:03:45;11.63;;;4.40;;
68923;SDS011;55961;52.156;20.942;2024-03-07T11:06:26;10.45;;;4.13;;
68923;SDS011;55961;52.156;20.942;2024-03-07T11:08:52;9.03;;;3.90;;
68923;SDS011;55961;52.156;20.942;2024-03-07T11:11:19;7.63;;;3.35;;
68923;SDS011;55961;52.156;20.942;2024-03-07T11:13:48;8.88;;;3.72;;
68923;SDS011;55961;52.156;20.942;2024-03-07T11:16:15;11.35;;;4.47;;
68923;SDS011;55961;52.156;20.942;2024-03-07T11:18:41;10.88;;;4.40;;
68923;SDS011;55961;52.156;20.942;2024-03-07T11:21:07;8.47;;;4.17;;
68923;SDS011;55961;52.156;20.942;2024-03-07T11:24:05;7.82;;;3.90;;
68923;SDS011;55961;52.156;20.942;2024-03-07T11:26:37;10.93;;;4.63;;
68923;SDS011;55961;52.156;20.942;2024-03-07T11:29:16;9.75;;;4.07;;
68923;SDS011;55961;52.156;20.942;2024-03-07T11:32:11;8.68;;;3.85;;
68923;SDS011;55961;52.156;20.942;2024-03-07T11:34:38;7.90;;;3.90;;
68923;SDS011;55961;52.156;20.942;2024-03-07T11:37:08;8.10;;;3.67;;
68923;SDS011;55961;52.156;20.942;2024-03-07T11:39:44;8.73;;;4.18;;
68923;SDS011;55961;52.156;20.942;2024-03-07T11:42:24;9.15;;;4.80;;
68923;SDS011;55961;52.156;20.942;2024-03-07T11:44:58;10.63;;;4.22;;
68923;SDS011;55961;52.156;20.942;2024-03-07T11:47:26;11.63;;;4.43;;
68923;SDS011;55961;52.156;20.942;2024-03-07T11:49:55;8.02;;;4.20;;
68923;SDS011;55961;52.156;20.942;2024-03-07T11:52:26;9.65;;;4.32;;
68923;SDS011;55961;52.156;20.942;2024-03-07T11:54:52;12.13;;;4.82;;
68923;SDS011;55961;52.156;20.942;2024-03-07T11:57:19;9.00;;;4.38;;
68923;SDS011;55961;52.156;20.942;2024-03-07T11:59:51;8.93;;;4.60;;
68923;SDS011;55961;52.156;20.942;2024-03-07T12:02:18;8.57;;;3.80;;
68923;SDS011;55961;52.156;20.942;2024-03-07T12:04:47;9.05;;;4.22;;
68923;SDS011;55961;52.156;20.942;2024-03-07T12:07:17;9.48;;;4.03;;
68923;SDS011;55961;52.156;20.942;2024-03-07T12:09:43;9.77;;;4.57;;
68923;SDS011;55961;52.156;20.942;2024-03-07T12:12:16;9.57;;;4.57;;
68923;SDS011;55961;52.156;20.942;2024-03-07T12:14:43;10.07;;;4.72;;
68923;SDS011;55961;52.156;20.942;2024-03-07T12:17:09;10.38;;;4.22;;
68923;SDS011;55961;52.156;20.942;2024-03-07T12:19:37;8.38;;;3.85;;
68923;SDS011;55961;52.156;20.942;2024-03-07T12:22:07;8.67;;;4.27;;
68923;SDS011;55961;52.156;20.942;2024-03-07T12:24:40;10.50;;;4.60;;
68923;SDS011;55961;52.156;20.942;2024-03-07T12:27:15;8.07;;;4.18;;
68923;SDS011;55961;52.156;20.942;2024-03-07T12:29:41;8.90;;;4.35;;
68923;SDS011;55961;52.156;20.942;2024-03-07T12:32:11;11.88;;;4.90;;
68923;SDS011;55961;52.156;20.942;2024-03-07T12:34:47;8.07;;;4.23;;
68923;SDS011;55961;52.156;20.942;2024-03-07T12:37:14;9.60;;;4.40;;
68923;SDS011;55961;52.156;20.942;2024-03-07T12:39:44;9.00;;;4.97;;
68923;SDS011;55961;52.156;20.942;2024-03-07T12:42:17;8.77;;;4.35;;
68923;SDS011;55961;52.156;20.942;2024-03-07T12:44:45;9.70;;;5.13;;
68923;SDS011;55961;52.156;20.942;2024-03-07T12:47:16;8.67;;;4.70;;
68923;SDS011;55961;52.156;20.942;2024-03-07T12:49:43;9.68;;;4.30;;
68923;SDS011;55961;52.156;20.942;2024-03-07T12:52:10;8.18;;;3.72;;
68923;SDS011;55961;52.156;20.942;2024-03-07T12:54:43;9.93;;;4.43;;
68923;SDS011;55961;52.156;20.942;2024-03-07T12:57:12;10.45;;;4.90;;
68923;SDS011;55961;52.156;20.942;2024-03-07T12:59:38;11.83;;;5.17;;
68923;SDS011;55961;52.156;20.942;2024-03-07T13:02:08;18.42;;;4.80;;
68923;SDS011;55961;52.156;20.942;2024-03-07T13:04:35;16.33;;;7.63;;
68923;SDS011;55961;52.156;20.942;2024-03-07T13:07:04;10.07;;;4.57;;
68923;SDS011;55961;52.156;20.942;2024-03-07T13:09:31;9.43;;;4.85;;
68923;SDS011;55961;52.156;20.942;2024-03-07T13:11:58;24.97;;;5.50;;
68923;SDS011;55961;52.156;20.942;2024-03-07T13:14:31;12.50;;;5.15;;
68923;SDS011;55961;52.156;20.942;2024-03-07T13:16:59;10.70;;;4.65;;
68923;SDS011;55961;52.156;20.942;2024-03-07T13:19:26;9.60;;;4.60;;
68923;SDS011;55961;52.156;20.942;2024-03-07T13:21:52;10.35;;;5.55;;
68923;SDS011;55961;52.156;20.942;2024-03-07T13:24:19;11.27;;;5.40;;
68923;SDS011;55961;52.156;20.942;2024-03-07T13:26:45;9.52;;;5.13;;
68923;SDS011;55961;52.156;20.942;2024-03-07T13:29:15;12.20;;;5.07;;
68923;SDS011;55961;52.156;20.942;2024-03-07T13:31:43;10.27;;;4.82;;
68923;SDS011;55961;52.156;20.942;2024-03-07T13:34:10;8.75;;;4.40;;
68923;SDS011;55961;52.156;20.942;2024-03-07T13:36:42;14.30;;;4.93;;
68923;SDS011;55961;52.156;20.942;2024-03-07T13:39:09;10.10;;;5.00;;
68923;SDS011;55961;52.156;20.942;2024-03-07T13:41:43;9.15;;;5.30;;
68923;SDS011;55961;52.156;20.942;2024-03-07T13:44:13;9.52;;;5.13;;
68923;SDS011;55961;52.156;20.942;2024-03-07T13:46:40;10.48;;;5.40;;
68923;SDS011;55961;52.156;20.942;2024-03-07T13:49:06;11.17;;;4.80;;
68923;SDS011;55961;52.156;20.942;2024-03-07T13:51:36;11.35;;;5.38;;
68923;SDS011;55961;52.156;20.942;2024-03-07T13:54:02;10.98;;;4.80;;
68923;SDS011;55961;52.156;20.942;2024-03-07T13:56:54;9.75;;;5.18;;
68923;SDS011;55961;52.156;20.942;2024-03-07T14:13:52;10.63;;;5.10;;
68923;SDS011;55961;52.156;20.942;2024-03-07T14:31:11;9.73;;;4.80;;
68923;SDS011;55961;52.156;20.942;2024-03-07T14:33:48;8.90;;;4.70;;
68923;SDS011;55961;52.156;20.942;2024-03-07T14:36:17;8.40;;;4.55;;
68923;SDS011;55961;52.156;20.942;2024-03-07T14:38:44;9.52;;;4.75;;
68923;SDS011;55961;52.156;20.942;2024-03-07T14:41:15;10.10;;;4.27;;
68923;SDS011;55961;52.156;20.942;2024-03-07T14:43:43;12.02;;;4.80;;
68923;SDS011;55961;52.156;20.942;2024-03-07T14:46:11;14.15;;;4.78;;
68923;SDS011;55961;52.156;20.942;2024-03-07T14:48:39;13.15;;;5.82;;
68923;SDS011;55961;52.156;20.942;2024-03-07T14:51:06;12.10;;;5.20;;
68923;SDS011;55961;52.156;20.942;2024-03-07T14:53:34;11.60;;;5.00;;
68923;SDS011;55961;52.156;20.942;2024-03-07T14:56:01;8.77;;;4.82;;
68923;SDS011;55961;52.156;20.942;2024-03-07T14:58:27;8.93;;;4.60;;
68923;SDS011;55961;52.156;20.942;2024-03-07T15:00:53;10.00;;;4.75;;
68923;SDS011;55961;52.156;20.942;2024-03-07T15:03:19;11.77;;;4.77;;